createdAt,value
2019-03-08T00:01:11.119Z,99.90
2019-03-08T00:03:38.804Z,99.90
2019-03-08T00:08:34.135Z,99.90
2019-03-08T00:11:02.110Z,99.90
2019-03-08T00:13:29.814Z,99.90
2019-03-08T00:15:57.550Z,99.90
2019-03-08T00:18:25.293Z,99.90
2019-03-08T00:23:20.723Z,99.90
2019-03-08T00:25:48.417Z,99.90
2019-03-08T00:28:16.128Z,99.90
2019-03-08T00:30:43.876Z,99.90
2019-03-08T00:33:11.656Z,99.90
2019-03-08T00:35:39.427Z,99.90
2019-03-08T00:38:07.284Z,99.90
2019-03-08T00:40:34.995Z,99.90
2019-03-08T00:43:03.026Z,99.90
2019-03-08T00:45:30.708Z,99.90
2019-03-08T00:47:58.471Z,99.90
2019-03-08T00:50:26.188Z,99.90
2019-03-08T00:52:53.995Z,99.90
2019-03-08T00:55:21.791Z,99.90
2019-03-08T01:00:17.674Z,99.90
2019-03-08T01:05:13.296Z,99.90
2019-03-08T01:07:41.048Z,99.90
2019-03-08T01:10:11.047Z,99.90
2019-03-08T01:12:38.831Z,99.90
2019-03-08T01:20:02.335Z,99.90
2019-03-08T01:24:57.698Z,99.90
2019-03-08T01:27:25.430Z,99.90
2019-03-08T01:29:53.287Z,99.90
2019-03-08T01:32:21.045Z,99.90
2019-03-08T01:37:16.389Z,99.90
2019-03-08T01:39:44.045Z,99.90
2019-03-08T01:42:11.765Z,99.90
2019-03-08T01:47:07.168Z,99.90
2019-03-08T01:52:02.501Z,99.90
2019-03-08T01:59:25.526Z,99.90
2019-03-08T02:01:53.482Z,99.90
2019-03-08T02:04:21.216Z,99.90
2019-03-08T02:06:48.904Z,99.90
2019-03-08T02:11:44.323Z,99.90
2019-03-08T02:14:12.058Z,99.90
2019-03-08T02:16:40.071Z,99.90
2019-03-08T02:19:07.790Z,99.90
2019-03-08T02:21:35.568Z,99.90
2019-03-08T02:29:05.100Z,99.90
2019-03-08T02:31:33.004Z,99.90
2019-03-08T02:34:00.679Z,99.90
2019-03-08T02:36:28.391Z,99.90
2019-03-08T02:41:23.843Z,99.90
2019-03-08T02:43:51.493Z,99.90
2019-03-08T02:46:19.210Z,99.90
2019-03-08T02:56:09.838Z,99.90
2019-03-08T02:58:37.600Z,99.90
2019-03-08T03:01:05.323Z,99.90
2019-03-08T03:03:33.306Z,99.90
2019-03-08T03:08:28.634Z,99.90
2019-03-08T03:10:56.329Z,99.90
2019-03-08T03:18:19.592Z,99.90
2019-03-08T03:20:47.373Z,99.90
2019-03-08T03:23:15.107Z,99.90
2019-03-08T03:25:42.796Z,99.90
2019-03-08T03:28:10.491Z,99.90
2019-03-08T03:30:38.210Z,99.90
2019-03-08T03:38:01.281Z,99.90
2019-03-08T03:40:28.967Z,99.90
2019-03-08T03:45:24.251Z,99.90
2019-03-08T03:47:51.899Z,99.90
2019-03-08T03:50:22.721Z,99.90
2019-03-08T03:52:50.508Z,99.90
2019-03-08T03:55:18.250Z,99.90
2019-03-08T04:02:41.835Z,99.90
2019-03-08T04:05:09.708Z,99.90
2019-03-08T04:12:32.894Z,99.90
2019-03-08T04:15:00.536Z,99.90
2019-03-08T04:19:55.909Z,99.90
2019-03-08T04:22:23.776Z,99.90
2019-03-08T04:24:51.448Z,99.90
2019-03-08T04:27:19.255Z,99.90
2019-03-08T04:29:46.967Z,99.90
2019-03-08T04:32:14.692Z,99.90
2019-03-08T04:34:42.351Z,99.90
2019-03-08T04:37:10.442Z,99.90
2019-03-08T04:39:38.118Z,99.90
2019-03-08T04:44:33.480Z,99.90
2019-03-08T04:51:56.449Z,99.90
2019-03-08T04:54:24.480Z,99.90
2019-03-08T04:56:52.453Z,99.90
2019-03-08T04:59:20.140Z,99.90
2019-03-08T05:04:15.430Z,99.90
2019-03-08T05:06:43.129Z,99.90
2019-03-08T05:09:11.112Z,99.90
2019-03-08T05:11:38.855Z,99.90
2019-03-08T05:14:06.480Z,99.90
2019-03-08T05:16:34.160Z,99.90
2019-03-08T05:19:01.827Z,99.90
2019-03-08T05:23:58.661Z,99.90
2019-03-08T05:28:54.121Z,99.90
2019-03-08T05:31:21.841Z,99.90
2019-03-08T05:33:49.519Z,99.90
2019-03-08T05:36:17.229Z,99.90
2019-03-08T05:41:17.900Z,99.90
2019-03-08T05:43:45.655Z,99.90
2019-03-08T05:46:13.338Z,99.90
2019-03-08T05:48:41.065Z,99.90
2019-03-08T05:51:08.742Z,99.90
2019-03-08T05:53:36.437Z,99.90
2019-03-08T05:58:31.732Z,99.90
2019-03-08T06:00:59.590Z,99.90
2019-03-08T06:03:27.357Z,99.90
2019-03-08T06:05:55.167Z,99.90
2019-03-08T06:08:22.848Z,99.90
2019-03-08T06:10:50.592Z,99.90
2019-03-08T06:13:18.642Z,99.90
2019-03-08T06:18:13.960Z,99.90
2019-03-08T06:25:36.863Z,99.90
2019-03-08T06:28:04.582Z,99.90
2019-03-08T06:30:32.613Z,99.90
2019-03-08T06:35:28.095Z,99.90
2019-03-08T06:37:55.793Z,99.90
2019-03-08T06:40:23.457Z,99.90
2019-03-08T06:42:51.957Z,99.90
2019-03-08T06:45:19.638Z,99.90
2019-03-08T06:50:15.301Z,99.90
2019-03-08T06:52:43.125Z,99.90
2019-03-08T06:55:11.140Z,99.90
2019-03-08T06:57:38.820Z,99.90
2019-03-08T07:00:28.353Z,99.90
2019-03-08T07:05:23.700Z,99.90
2019-03-08T07:07:51.436Z,99.90
2019-03-08T07:12:46.766Z,99.90
2019-03-08T07:15:14.775Z,99.90
2019-03-08T07:20:38.747Z,99.90
2019-03-08T07:26:17.423Z,99.90
2019-03-08T07:29:19.674Z,99.90
2019-03-08T07:32:07.465Z,99.90
2019-03-08T07:35:06.767Z,99.90
2019-03-08T07:37:50.975Z,99.90
2019-03-08T07:43:22.930Z,99.90
2019-03-08T07:46:11.433Z,99.90
2019-03-08T07:48:51.444Z,99.90
2019-03-08T07:56:59.507Z,99.90
2019-03-08T08:02:35.769Z,99.90
2019-03-08T08:05:13.074Z,99.90
2019-03-08T08:08:19.727Z,99.90
2019-03-08T08:11:06.902Z,99.90
2019-03-08T08:19:35.457Z,99.90
2019-03-08T08:22:20.280Z,99.90
2019-03-08T08:27:36.454Z,99.90
2019-03-08T08:30:15.376Z,99.90
2019-03-08T08:33:05.515Z,99.90
2019-03-08T08:39:10.032Z,99.90
2019-03-08T08:42:03.370Z,99.90
2019-03-08T08:44:38.011Z,99.90
2019-03-08T08:47:28.152Z,99.90
2019-03-08T08:50:12.829Z,99.90
2019-03-08T08:52:49.883Z,99.90
2019-03-08T08:58:26.984Z,99.90
2019-03-08T09:03:55.677Z,99.90
2019-03-08T09:09:19.981Z,99.90
2019-03-08T09:12:13.303Z,99.90
2019-03-08T09:14:55.135Z,99.90
2019-03-08T09:17:45.342Z,99.90
2019-03-08T09:23:23.235Z,99.90
2019-03-08T09:25:57.252Z,99.90
2019-03-08T09:28:59.432Z,99.90
2019-03-08T09:31:35.589Z,99.90
2019-03-08T09:34:38.142Z,99.90
2019-03-08T09:40:03.795Z,99.90
2019-03-08T09:45:46.162Z,99.90
2019-03-08T09:48:26.303Z,99.90
2019-03-08T09:51:09.665Z,99.90
2019-03-08T09:54:02.941Z,99.90
2019-03-08T09:56:55.921Z,99.90
2019-03-08T09:59:38.202Z,99.90
2019-03-08T10:02:20.539Z,99.90
2019-03-08T10:05:02.503Z,99.90
2019-03-08T10:08:04.758Z,99.90
2019-03-08T10:13:12.435Z,99.90
2019-03-08T10:15:48.698Z,99.90
2019-03-08T10:18:51.207Z,99.90
2019-03-08T10:21:42.214Z,99.90
2019-03-08T10:24:28.112Z,99.90
2019-03-08T10:27:15.406Z,99.90
2019-03-08T10:30:01.485Z,99.90
2019-03-08T10:32:47.207Z,99.90
2019-03-08T10:35:37.549Z,99.90
2019-03-08T10:41:27.185Z,99.90
2019-03-08T10:47:22.391Z,99.90
2019-03-08T10:53:17.675Z,99.90
2019-03-08T10:56:11.610Z,99.90
2019-03-08T10:58:57.792Z,99.90
2019-03-08T11:01:43.855Z,99.90
2019-03-08T11:07:20.925Z,99.90
2019-03-08T11:12:43.426Z,99.90
2019-03-08T11:15:34.276Z,99.90
2019-03-08T11:18:39.552Z,99.90
2019-03-08T11:21:31.123Z,99.90
2019-03-08T11:24:18.474Z,99.90
2019-03-08T11:35:45.375Z,99.90
2019-03-08T11:38:29.349Z,99.90
2019-03-08T11:41:28.738Z,99.90
2019-03-08T11:44:27.893Z,99.90
2019-03-08T11:47:07.103Z,99.90
2019-03-08T11:50:12.562Z,99.90
2019-03-08T11:53:12.016Z,99.90
2019-03-08T11:55:56.455Z,99.90
2019-03-08T11:58:42.217Z,99.90
2019-03-08T12:01:26.175Z,99.90
2019-03-08T12:04:13.396Z,99.90
2019-03-08T12:06:59.400Z,99.90
2019-03-08T12:09:48.224Z,99.90
2019-03-08T12:15:22.581Z,99.90
2019-03-08T12:18:06.831Z,99.50
2019-03-08T12:21:03.755Z,99.80
2019-03-08T12:23:56.789Z,99.30
2019-03-08T12:26:34.406Z,99.60
2019-03-08T12:29:21.606Z,99.30
2019-03-08T12:32:10.889Z,99.50
2019-03-08T12:34:43.823Z,98.70
2019-03-08T12:37:26.477Z,98.40
2019-03-08T12:40:09.754Z,97.80
2019-03-08T12:43:08.369Z,97.70
2019-03-08T12:45:55.086Z,94.70
2019-03-08T12:51:35.141Z,99.90
2019-03-08T12:54:19.571Z,99.90
2019-03-08T12:57:07.077Z,99.90
2019-03-08T12:59:42.172Z,99.90
2019-03-08T13:02:18.596Z,99.90
2019-03-08T13:08:17.565Z,99.90
2019-03-08T13:10:45.228Z,99.90
2019-03-08T13:13:13.120Z,99.90
2019-03-08T13:15:40.807Z,99.90
2019-03-08T13:18:08.592Z,99.90
2019-03-08T13:25:32.570Z,99.90
2019-03-08T13:30:28.018Z,99.90
2019-03-08T13:32:55.776Z,99.90
2019-03-08T13:35:23.571Z,99.90
2019-03-08T13:37:51.610Z,99.90
2019-03-08T13:40:19.249Z,99.90
2019-03-08T13:45:15.288Z,99.90
2019-03-08T13:47:42.977Z,99.90
2019-03-08T13:50:11.311Z,99.90
2019-03-08T13:52:39.058Z,99.90
2019-03-08T13:55:09.726Z,99.90
2019-03-08T13:57:37.682Z,99.40
2019-03-08T14:00:07.340Z,97.40
2019-03-08T14:02:35.121Z,97.30
2019-03-08T14:05:02.842Z,96.80
2019-03-08T14:10:05.642Z,94.40
2019-03-08T14:12:33.346Z,91.10
2019-03-08T14:17:28.889Z,92.60
2019-03-08T14:19:59.351Z,94.30
2019-03-08T14:24:55.475Z,95.00
2019-03-08T14:27:23.106Z,97.50
2019-03-08T14:29:50.844Z,99.90
2019-03-08T14:32:21.301Z,99.90
2019-03-08T14:37:19.925Z,99.90
2019-03-08T14:39:48.303Z,99.90
2019-03-08T14:42:27.436Z,99.90
2019-03-08T14:45:08.879Z,99.90
2019-03-08T14:47:39.281Z,99.90
2019-03-08T14:50:11.020Z,99.90
2019-03-08T14:57:36.198Z,99.90
2019-03-08T15:02:32.964Z,99.90
2019-03-08T15:05:10.663Z,99.90
2019-03-08T15:07:30.257Z,99.90
2019-03-08T15:09:58.252Z,99.90
2019-03-08T15:14:54.074Z,99.90
2019-03-08T15:19:49.443Z,99.90
2019-03-08T15:22:17.427Z,99.90
2019-03-08T15:24:45.170Z,99.90
2019-03-08T15:27:12.997Z,99.90
2019-03-08T15:32:08.924Z,99.90
2019-03-08T15:34:36.621Z,99.90
2019-03-08T15:37:04.385Z,99.90
2019-03-08T15:39:32.060Z,99.90
2019-03-08T15:42:03.454Z,99.90
2019-03-08T15:49:30.583Z,99.90
2019-03-08T15:51:59.916Z,99.90
2019-03-08T15:54:32.305Z,99.90
2019-03-08T15:57:00.092Z,99.90
2019-03-08T15:59:27.729Z,99.90
2019-03-08T16:04:23.010Z,99.90
2019-03-08T16:09:18.656Z,99.90
2019-03-08T16:11:46.352Z,99.90
2019-03-08T16:16:41.736Z,99.90
2019-03-08T16:21:37.076Z,99.90
2019-03-08T16:24:05.048Z,99.90
2019-03-08T16:29:00.365Z,99.90
2019-03-08T16:31:56.420Z,99.90
2019-03-08T16:34:24.111Z,99.90
2019-03-08T16:37:01.724Z,99.90
2019-03-08T16:39:47.483Z,99.90
2019-03-08T16:42:52.879Z,99.90
2019-03-08T16:45:50.550Z,99.90
2019-03-08T16:48:24.580Z,99.90
2019-03-08T16:51:30.181Z,99.90
2019-03-08T16:57:00.319Z,99.90
2019-03-08T16:59:50.272Z,99.90
2019-03-08T17:05:27.260Z,99.90
2019-03-08T17:13:54.356Z,99.90
2019-03-08T17:16:50.529Z,99.90
2019-03-08T17:19:35.789Z,99.90
2019-03-08T17:22:21.764Z,99.90
2019-03-08T17:24:57.283Z,99.90
2019-03-08T17:27:44.735Z,99.90
2019-03-08T17:33:34.129Z,99.90
2019-03-08T17:36:27.137Z,99.90
2019-03-08T17:39:04.191Z,99.90
2019-03-08T17:47:29.010Z,99.90
2019-03-08T17:50:22.228Z,99.90
2019-03-08T17:56:14.827Z,99.90
2019-03-08T17:59:03.280Z,99.90
2019-03-08T18:01:43.213Z,99.90
2019-03-08T18:04:30.329Z,99.90
2019-03-08T18:07:17.564Z,99.90
2019-03-08T18:13:10.003Z,99.90
2019-03-08T18:15:57.142Z,99.90
2019-03-08T18:18:50.797Z,99.90
2019-03-08T18:21:49.924Z,99.90
2019-03-08T18:24:55.520Z,99.90
2019-03-08T18:30:20.978Z,99.90
2019-03-08T18:32:56.784Z,99.90
2019-03-08T18:35:56.210Z,99.90
2019-03-08T18:38:42.165Z,99.90
2019-03-08T18:41:17.116Z,99.90
2019-03-08T18:44:05.289Z,99.90
2019-03-08T18:49:39.203Z,99.90
2019-03-08T18:52:26.418Z,99.90
2019-03-08T18:58:02.114Z,99.90
2019-03-08T19:00:58.314Z,99.90
2019-03-08T19:03:44.564Z,99.90
2019-03-08T19:06:20.538Z,99.90
2019-03-08T19:12:04.010Z,99.90
2019-03-08T19:17:38.428Z,99.90
2019-03-08T19:23:16.669Z,99.90
2019-03-08T19:26:06.771Z,99.90
2019-03-08T19:31:35.769Z,99.90
2019-03-08T19:40:04.602Z,99.90
2019-03-08T19:42:50.603Z,99.90
2019-03-08T19:51:08.630Z,99.90
2019-03-08T19:56:44.055Z,99.90
2019-03-08T19:59:21.237Z,99.90
2019-03-08T20:07:52.397Z,99.90
2019-03-08T20:10:53.446Z,99.90
2019-03-08T20:13:40.918Z,99.90
2019-03-08T20:16:27.079Z,99.90
2019-03-08T20:19:30.133Z,99.90
2019-03-08T20:30:55.582Z,99.90
2019-03-08T20:36:57.254Z,99.90
2019-03-08T20:39:46.676Z,99.90
2019-03-08T20:42:32.382Z,99.90
2019-03-08T20:45:10.533Z,99.90
2019-03-08T20:47:38.341Z,99.90
2019-03-08T20:50:08.171Z,99.90
2019-03-08T20:57:31.220Z,99.90
2019-03-08T20:59:58.955Z,99.90
2019-03-08T21:02:26.573Z,99.90
2019-03-08T21:04:54.202Z,99.90
2019-03-08T21:09:49.463Z,99.90
2019-03-08T21:12:17.165Z,99.90
2019-03-08T21:17:12.461Z,99.90
2019-03-08T21:19:40.269Z,99.90
2019-03-08T21:24:35.728Z,99.90
2019-03-08T21:27:04.742Z,99.90
2019-03-08T21:29:32.534Z,99.90
2019-03-08T21:32:00.339Z,99.90
2019-03-08T21:36:55.773Z,99.90
2019-03-08T21:39:23.510Z,99.90
2019-03-08T21:44:18.793Z,99.90
2019-03-08T21:46:46.891Z,99.90
2019-03-08T21:49:14.783Z,99.90
2019-03-08T21:51:42.742Z,99.90
2019-03-08T21:56:38.070Z,99.90
2019-03-08T21:59:05.737Z,99.90
2019-03-08T22:01:33.753Z,99.90
2019-03-08T22:06:33.676Z,99.90
2019-03-08T22:09:07.425Z,99.90
2019-03-08T22:11:37.222Z,99.90
2019-03-08T22:14:04.882Z,99.90
2019-03-08T22:16:32.538Z,99.90
2019-03-08T22:19:00.186Z,99.90
2019-03-08T22:21:27.840Z,99.90
2019-03-08T22:26:23.136Z,99.90
2019-03-08T22:28:50.850Z,99.90
2019-03-08T22:31:18.556Z,99.90
2019-03-08T22:33:46.207Z,99.90
2019-03-08T22:36:15.757Z,99.90
2019-03-08T22:43:38.636Z,99.90
2019-03-08T22:46:06.296Z,99.90
2019-03-08T22:53:29.077Z,99.90
2019-03-08T22:55:56.778Z,99.90
2019-03-08T22:58:24.385Z,99.90
2019-03-08T23:03:39.997Z,99.90
2019-03-08T23:06:07.644Z,99.90
2019-03-08T23:08:35.281Z,99.90
2019-03-08T23:11:03.030Z,99.90
2019-03-08T23:13:30.640Z,99.90
2019-03-08T23:15:58.306Z,99.90
2019-03-08T23:18:25.991Z,99.90
2019-03-08T23:23:21.229Z,99.90
2019-03-08T23:25:49.061Z,99.90
2019-03-08T23:28:21.910Z,99.90
2019-03-08T23:33:19.235Z,99.90
2019-03-08T23:35:46.851Z,99.90
2019-03-08T23:38:14.488Z,99.90
2019-03-08T23:43:09.776Z,99.90
2019-03-08T23:48:05.211Z,99.90
2019-03-08T23:53:00.488Z,99.90
2019-03-08T23:55:28.117Z,99.90
2019-03-08T23:57:55.783Z,99.90
